createdAt,value
2017-10-27T00:02:06.131Z,11.90
2017-10-27T00:04:33.627Z,11.90
2017-10-27T00:07:01.143Z,11.80
2017-10-27T00:09:28.653Z,11.70
2017-10-27T00:11:56.181Z,11.60
2017-10-27T00:14:23.699Z,11.40
2017-10-27T00:16:51.984Z,11.00
2017-10-27T00:19:20.255Z,10.90
2017-10-27T00:21:48.553Z,10.70
2017-10-27T00:24:16.062Z,10.70
2017-10-27T00:26:43.562Z,10.60
2017-10-27T00:29:11.085Z,10.50
2017-10-27T00:31:38.595Z,10.50
2017-10-27T00:34:06.111Z,10.40
2017-10-27T00:36:34.735Z,10.40
2017-10-27T00:39:02.247Z,10.40
2017-10-27T00:41:29.751Z,10.40
2017-10-27T00:43:57.267Z,10.40
2017-10-27T00:46:24.764Z,10.40
2017-10-27T00:48:52.287Z,10.30
2017-10-27T00:51:20.559Z,10.30
2017-10-27T00:53:48.080Z,10.30
2017-10-27T00:56:15.584Z,10.40
2017-10-27T00:58:43.872Z,10.50
2017-10-27T01:01:12.146Z,10.70
2017-10-27T01:03:40.428Z,10.80
2017-10-27T01:06:07.927Z,10.70
2017-10-27T01:08:36.219Z,11.00
2017-10-27T01:11:03.711Z,11.00
2017-10-27T01:13:31.991Z,11.20
2017-10-27T01:16:00.263Z,11.30
2017-10-27T01:18:28.542Z,11.40
2017-10-27T01:20:57.153Z,11.50
2017-10-27T01:23:24.683Z,11.40
2017-10-27T01:25:52.952Z,11.70
2017-10-27T01:28:21.219Z,11.80
2017-10-27T01:30:49.513Z,11.90
2017-10-27T01:33:17.013Z,11.90
2017-10-27T01:35:44.533Z,11.90
2017-10-27T01:38:12.032Z,12.00
2017-10-27T01:40:39.547Z,12.00
2017-10-27T01:43:07.043Z,12.10
2017-10-27T01:45:34.564Z,12.10
2017-10-27T01:48:02.079Z,12.10
2017-10-27T01:50:29.596Z,12.10
2017-10-27T01:52:57.100Z,12.00
2017-10-27T01:55:25.026Z,12.00
2017-10-27T01:57:52.528Z,12.00
2017-10-27T02:00:20.053Z,11.90
2017-10-27T02:02:47.556Z,11.90
2017-10-27T02:05:15.075Z,12.00
2017-10-27T02:07:42.580Z,12.00
2017-10-27T02:10:10.868Z,12.20
2017-10-27T02:12:39.136Z,12.30
2017-10-27T02:15:07.421Z,12.40
2017-10-27T02:17:35.688Z,12.40
2017-10-27T02:20:03.971Z,12.40
2017-10-27T02:22:32.234Z,12.50
2017-10-27T02:25:00.515Z,12.70
2017-10-27T02:27:28.775Z,12.80
2017-10-27T02:29:56.275Z,12.70
2017-10-27T02:32:23.791Z,12.80
2017-10-27T02:34:51.287Z,12.90
2017-10-27T02:37:18.799Z,13.10
2017-10-27T02:39:46.300Z,13.20
2017-10-27T02:42:13.825Z,13.30
2017-10-27T02:44:42.104Z,13.30
2017-10-27T02:47:09.619Z,13.30
2017-10-27T02:49:37.118Z,13.20
2017-10-27T02:52:04.640Z,13.30
2017-10-27T02:54:32.147Z,13.40
2017-10-27T02:57:00.430Z,13.40
2017-10-27T02:59:28.697Z,13.40
2017-10-27T03:01:56.987Z,13.40
2017-10-27T03:04:25.243Z,13.40
2017-10-27T03:06:53.534Z,13.40
2017-10-27T03:09:21.034Z,13.40
2017-10-27T03:11:49.315Z,13.40
2017-10-27T03:14:16.815Z,13.40
2017-10-27T03:16:45.095Z,13.40
2017-10-27T03:19:13.363Z,13.40
2017-10-27T03:21:41.648Z,13.40
2017-10-27T03:24:09.911Z,13.40
2017-10-27T03:26:37.434Z,13.40
2017-10-27T03:29:04.928Z,13.40
2017-10-27T03:31:33.235Z,13.50
2017-10-27T03:34:00.731Z,13.50
2017-10-27T03:36:28.234Z,13.60
2017-10-27T03:38:56.514Z,13.70
2017-10-27T03:41:24.011Z,13.70
2017-10-27T03:43:51.522Z,13.60
2017-10-27T03:46:19.788Z,13.70
2017-10-27T03:48:48.071Z,13.70
2017-10-27T03:51:16.330Z,13.70
2017-10-27T03:53:43.847Z,13.80
2017-10-27T03:56:11.344Z,13.80
2017-10-27T03:58:38.867Z,13.80
2017-10-27T04:01:06.567Z,13.80
2017-10-27T04:03:34.088Z,13.80
2017-10-27T04:06:01.583Z,13.80
2017-10-27T04:08:29.098Z,13.80
2017-10-27T04:10:56.599Z,13.80
2017-10-27T04:13:24.116Z,13.80
2017-10-27T04:15:51.611Z,13.80
2017-10-27T04:18:19.127Z,13.80
2017-10-27T04:20:46.626Z,13.80
2017-10-27T04:23:14.147Z,13.80
2017-10-27T04:25:41.643Z,13.80
2017-10-27T04:28:09.155Z,13.80
2017-10-27T04:30:36.655Z,13.80
2017-10-27T04:33:04.197Z,13.80
2017-10-27T04:35:31.698Z,13.90
2017-10-27T04:37:59.207Z,13.90
2017-10-27T04:40:26.723Z,13.80
2017-10-27T04:42:54.228Z,13.90
2017-10-27T04:45:21.747Z,13.90
2017-10-27T04:47:49.250Z,14.00
2017-10-27T04:50:16.772Z,13.90
2017-10-27T04:52:44.276Z,13.90
2017-10-27T04:55:11.791Z,13.90
2017-10-27T04:57:39.292Z,13.90
2017-10-27T05:00:06.813Z,13.90
2017-10-27T05:02:34.330Z,13.90
2017-10-27T05:05:03.352Z,13.70
2017-10-27T05:07:30.885Z,13.70
2017-10-27T05:09:59.187Z,13.90
2017-10-27T05:12:26.705Z,13.90
2017-10-27T05:14:55.227Z,13.90
2017-10-27T05:17:29.126Z,13.90
2017-10-27T05:20:02.339Z,14.00
2017-10-27T05:22:35.563Z,14.00
2017-10-27T05:25:03.920Z,13.90
2017-10-27T05:27:31.432Z,13.90
2017-10-27T05:29:59.752Z,13.80
2017-10-27T05:32:27.275Z,13.80
2017-10-27T05:34:55.584Z,13.90
2017-10-27T05:37:23.084Z,13.90
2017-10-27T05:39:50.611Z,13.90
2017-10-27T05:42:18.127Z,13.90
2017-10-27T05:44:46.386Z,13.90
2017-10-27T05:47:14.673Z,13.80
2017-10-27T05:49:42.934Z,13.90
2017-10-27T05:52:10.455Z,13.90
2017-10-27T05:54:37.955Z,13.90
2017-10-27T05:57:06.248Z,13.90
2017-10-27T05:59:34.520Z,13.90
2017-10-27T06:02:02.800Z,13.80
2017-10-27T06:04:30.305Z,13.80
2017-10-27T06:06:58.591Z,13.70
2017-10-27T06:09:26.108Z,13.70
2017-10-27T06:11:53.627Z,13.60
2017-10-27T06:14:21.137Z,13.60
2017-10-27T06:16:48.656Z,13.50
2017-10-27T06:19:16.923Z,13.40
2017-10-27T06:21:45.216Z,13.30
2017-10-27T06:24:13.485Z,13.30
2017-10-27T06:26:41.771Z,13.10
2017-10-27T06:29:09.280Z,13.10
2017-10-27T06:31:36.807Z,13.10
2017-10-27T06:34:04.315Z,13.10
2017-10-27T06:36:31.908Z,13.10
2017-10-27T06:38:59.429Z,13.00
2017-10-27T06:41:27.048Z,13.00
2017-10-27T06:43:56.464Z,13.00
2017-10-27T06:46:26.681Z,12.90
2017-10-27T06:48:54.222Z,12.90
2017-10-27T06:51:22.458Z,12.90
2017-10-27T06:53:50.775Z,12.80
2017-10-27T06:56:18.278Z,12.80
2017-10-27T06:58:45.801Z,12.70
2017-10-27T07:01:13.302Z,12.70
2017-10-27T07:03:40.828Z,12.60
2017-10-27T07:06:08.331Z,12.70
2017-10-27T07:08:36.624Z,12.60
2017-10-27T07:11:04.895Z,12.60
2017-10-27T07:13:33.182Z,12.60
2017-10-27T07:16:00.689Z,12.60
2017-10-27T07:18:28.231Z,12.50
2017-10-27T07:20:55.739Z,12.50
2017-10-27T07:23:24.026Z,12.40
2017-10-27T07:25:52.300Z,12.50
2017-10-27T07:28:20.593Z,12.50
2017-10-27T07:30:48.104Z,12.40
2017-10-27T07:33:15.631Z,12.40
2017-10-27T07:35:43.171Z,12.40
2017-10-27T07:38:10.692Z,12.30
2017-10-27T07:40:38.207Z,12.50
2017-10-27T07:43:05.726Z,12.70
2017-10-27T07:45:34.000Z,12.60
2017-10-27T07:48:02.271Z,12.90
2017-10-27T07:50:30.580Z,13.00
2017-10-27T07:52:58.126Z,13.00
2017-10-27T07:55:25.651Z,13.10
2017-10-27T07:57:53.162Z,13.20
2017-10-27T08:00:20.692Z,13.10
2017-10-27T08:02:48.967Z,12.90
2017-10-27T08:05:17.353Z,12.80
2017-10-27T08:07:44.888Z,12.80
2017-10-27T08:10:12.697Z,12.80
2017-10-27T08:12:40.382Z,12.70
2017-10-27T08:15:08.915Z,12.60
2017-10-27T08:17:36.452Z,12.60
2017-10-27T08:20:05.659Z,12.50
2017-10-27T08:22:34.005Z,12.60
2017-10-27T08:25:01.532Z,12.60
2017-10-27T08:27:29.039Z,12.50
2017-10-27T08:29:56.560Z,12.70
2017-10-27T08:32:24.066Z,12.70
2017-10-27T08:34:52.381Z,12.70
2017-10-27T08:37:19.887Z,12.70
2017-10-27T08:39:47.419Z,12.60
2017-10-27T08:42:26.747Z,12.60
2017-10-27T08:44:54.277Z,12.60
2017-10-27T08:47:21.792Z,12.60
2017-10-27T08:49:49.315Z,12.50
2017-10-27T08:52:16.823Z,12.40
2017-10-27T08:54:45.118Z,12.20
2017-10-27T08:57:13.382Z,12.10
2017-10-27T08:59:41.656Z,12.00
2017-10-27T09:02:09.944Z,11.90
2017-10-27T09:04:37.458Z,11.90
2017-10-27T09:07:04.991Z,11.80
2017-10-27T09:09:32.511Z,11.70
2017-10-27T09:12:00.805Z,11.40
2017-10-27T09:14:28.311Z,11.40
2017-10-27T09:16:55.826Z,11.30
2017-10-27T09:19:23.340Z,11.10
2017-10-27T09:21:50.871Z,11.10
2017-10-27T09:24:18.379Z,10.80
2017-10-27T09:26:46.670Z,10.40
2017-10-27T09:29:14.175Z,10.40
2017-10-27T09:31:41.703Z,10.20
2017-10-27T09:34:09.212Z,10.00
2017-10-27T09:36:36.740Z,9.70
2017-10-27T09:39:04.413Z,9.60
2017-10-27T09:41:31.959Z,9.40
2017-10-27T09:44:03.131Z,9.20
2017-10-27T09:46:32.294Z,9.00
2017-10-27T09:48:59.828Z,8.90
2017-10-27T09:51:27.362Z,8.80
2017-10-27T09:53:55.788Z,8.80
2017-10-27T09:56:29.776Z,8.80
2017-10-27T09:58:57.399Z,8.70
2017-10-27T10:01:28.676Z,8.80
2017-10-27T10:04:00.223Z,8.80
2017-10-27T10:06:31.710Z,8.80
2017-10-27T10:08:59.268Z,8.80
2017-10-27T10:11:27.238Z,8.80
2017-10-27T10:14:07.137Z,8.80
2017-10-27T10:16:39.843Z,8.80
2017-10-27T10:19:09.732Z,8.80
2017-10-27T10:28:07.085Z,8.80
2017-10-27T10:34:13.387Z,8.70
2017-10-27T10:37:59.238Z,8.60
2017-10-27T10:40:28.849Z,8.50
2017-10-27T10:43:06.061Z,8.40
2017-10-27T11:00:12.495Z,8.50
2017-10-27T11:05:41.643Z,8.50
2017-10-27T11:08:09.208Z,8.40
2017-10-27T11:10:36.779Z,8.30
2017-10-27T11:22:15.405Z,8.20
2017-10-27T11:56:00.335Z,8.90
2017-10-27T11:58:27.921Z,8.90
2017-10-27T12:03:30.631Z,9.20
2017-10-27T12:05:58.247Z,9.40
2017-10-27T12:08:25.970Z,9.60
2017-10-27T12:10:54.271Z,9.80
2017-10-27T12:13:23.091Z,9.80
2017-10-27T12:15:51.415Z,9.80
2017-10-27T12:18:19.023Z,9.80
2017-10-27T12:20:47.469Z,9.90
2017-10-27T12:23:15.528Z,10.00
2017-10-27T12:25:43.074Z,9.90
2017-10-27T12:28:10.588Z,9.60
2017-10-27T12:30:38.110Z,9.40
2017-10-27T12:33:20.926Z,9.40
2017-10-27T12:35:50.196Z,9.30
2017-10-27T12:38:18.702Z,9.40
2017-10-27T12:40:46.302Z,9.60
2017-10-27T12:43:13.844Z,9.80
2017-10-27T12:45:41.427Z,9.80
2017-10-27T12:48:08.939Z,9.80
2017-10-27T12:50:36.456Z,9.90
2017-10-27T12:53:04.728Z,9.90
2017-10-27T12:55:32.994Z,9.80
2017-10-27T12:58:00.507Z,9.80
2017-10-27T13:00:28.007Z,9.60
2017-10-27T13:02:55.519Z,9.60
2017-10-27T13:05:23.015Z,9.60
2017-10-27T13:07:50.531Z,9.70
2017-10-27T13:10:18.035Z,9.60
2017-10-27T13:12:45.553Z,9.60
2017-10-27T13:15:13.060Z,9.70
2017-10-27T13:17:40.584Z,9.90
2017-10-27T13:20:08.079Z,9.80
2017-10-27T13:22:36.377Z,10.10
2017-10-27T13:25:03.889Z,10.10
2017-10-27T13:27:31.560Z,10.50
2017-10-27T13:29:59.064Z,10.50
2017-10-27T13:32:26.585Z,10.50
2017-10-27T13:34:54.091Z,10.50
2017-10-27T13:37:21.611Z,10.50
2017-10-27T13:39:49.894Z,10.40
2017-10-27T13:42:18.173Z,10.30
2017-10-27T13:44:45.689Z,10.30
2017-10-27T13:47:13.208Z,10.20
2017-10-27T13:49:40.711Z,10.10
2017-10-27T13:52:08.267Z,10.00
2017-10-27T13:54:36.390Z,9.90
2017-10-27T13:57:06.749Z,10.00
2017-10-27T13:59:34.316Z,10.20
2017-10-27T14:02:03.691Z,9.90
2017-10-27T14:04:31.207Z,9.90
2017-10-27T14:06:59.476Z,9.60
2017-10-27T14:09:27.841Z,9.50
2017-10-27T14:11:55.349Z,9.50
2017-10-27T14:14:22.862Z,9.40
2017-10-27T14:16:50.355Z,9.20
2017-10-27T14:19:17.863Z,8.80
2017-10-27T14:21:45.363Z,8.50
2017-10-27T14:24:13.639Z,8.40
2017-10-27T14:26:41.906Z,8.30
2017-10-27T14:29:10.183Z,8.30
2017-10-27T14:31:38.448Z,8.20
2017-10-27T14:34:05.964Z,8.20
2017-10-27T14:36:33.468Z,8.20
2017-10-27T14:39:00.987Z,8.40
2017-10-27T14:41:28.488Z,8.60
2017-10-27T14:43:56.771Z,8.80
2017-10-27T14:46:25.032Z,8.80
2017-10-27T14:48:52.542Z,8.80
2017-10-27T14:51:20.037Z,8.90
2017-10-27T14:53:47.551Z,8.80
2017-10-27T14:56:15.047Z,8.70
2017-10-27T14:58:42.564Z,8.70
2017-10-27T15:01:10.060Z,8.80
2017-10-27T15:03:37.583Z,9.00
2017-10-27T15:06:05.114Z,9.00
2017-10-27T15:08:33.394Z,9.00
2017-10-27T15:11:00.912Z,9.00
2017-10-27T15:13:28.412Z,9.10
2017-10-27T15:15:55.934Z,9.20
2017-10-27T15:18:23.430Z,9.30
2017-10-27T15:20:50.948Z,9.50
2017-10-27T15:23:18.468Z,9.60
2017-10-27T15:25:46.922Z,9.50
2017-10-27T15:28:17.350Z,9.20
2017-10-27T15:30:47.166Z,9.20
2017-10-27T15:33:16.521Z,8.90
2017-10-27T15:35:44.163Z,8.90
2017-10-27T15:38:12.628Z,8.70
2017-10-27T15:40:40.150Z,8.50
2017-10-27T15:43:08.411Z,8.30
2017-10-27T15:45:35.935Z,8.30
2017-10-27T15:48:03.427Z,8.20
2017-10-27T15:50:30.972Z,8.20
2017-10-27T15:52:58.483Z,8.20
2017-10-27T15:55:25.995Z,8.20
2017-10-27T15:57:53.491Z,8.20
2017-10-27T16:00:21.004Z,8.10
2017-10-27T16:02:48.511Z,8.10
2017-10-27T16:05:16.043Z,8.10
2017-10-27T16:07:44.304Z,8.10
2017-10-27T16:10:11.803Z,8.10
2017-10-27T16:12:39.317Z,8.00
2017-10-27T16:15:06.823Z,7.90
2017-10-27T16:17:34.341Z,7.90
2017-10-27T16:20:01.840Z,7.70
2017-10-27T16:22:29.352Z,7.60
2017-10-27T16:24:56.847Z,7.40
2017-10-27T16:27:24.364Z,7.40
2017-10-27T16:29:51.880Z,7.30
2017-10-27T16:32:19.396Z,7.30
2017-10-27T16:34:47.660Z,7.60
2017-10-27T16:37:15.175Z,7.60
2017-10-27T16:39:42.673Z,7.60
2017-10-27T16:42:10.183Z,7.50
2017-10-27T16:44:37.791Z,7.40
2017-10-27T16:47:06.107Z,7.50
2017-10-27T16:49:33.645Z,7.50
2017-10-27T16:52:01.982Z,7.50
2017-10-27T16:54:29.529Z,7.70
2017-10-27T16:56:57.870Z,7.70
2017-10-27T16:59:25.416Z,7.50
2017-10-27T17:01:53.188Z,7.50
2017-10-27T17:04:22.497Z,7.40
2017-10-27T17:06:52.594Z,7.50
2017-10-27T17:09:20.442Z,7.50
2017-10-27T17:11:48.012Z,7.50
2017-10-27T17:14:15.564Z,7.50
2017-10-27T17:16:43.068Z,7.50
2017-10-27T17:19:10.582Z,7.50
2017-10-27T17:21:38.098Z,7.50
2017-10-27T17:24:05.628Z,7.60
2017-10-27T17:26:33.891Z,7.60
2017-10-27T17:29:02.174Z,7.50
2017-10-27T17:31:30.444Z,7.50
2017-10-27T17:33:58.723Z,7.50
2017-10-27T17:36:26.983Z,7.40
2017-10-27T17:38:54.500Z,7.40
2017-10-27T17:41:21.996Z,7.40
2017-10-27T17:43:49.509Z,7.50
2017-10-27T17:46:17.011Z,7.40
2017-10-27T17:48:44.519Z,7.40
2017-10-27T17:51:12.011Z,7.30
2017-10-27T17:53:39.528Z,7.30
2017-10-27T17:56:07.023Z,7.20
2017-10-27T17:58:34.537Z,7.10
2017-10-27T18:01:02.039Z,7.20
2017-10-27T18:03:29.547Z,7.10
2017-10-27T18:05:57.807Z,7.00
2017-10-27T18:08:26.095Z,7.00
2017-10-27T18:10:54.351Z,6.80
2017-10-27T18:13:21.900Z,6.80
2017-10-27T18:15:49.402Z,6.90
2017-10-27T18:18:16.952Z,6.90
2017-10-27T18:20:45.320Z,6.80
2017-10-27T18:23:13.626Z,6.80
2017-10-27T18:25:41.201Z,6.80
2017-10-27T18:28:08.716Z,6.80
2017-10-27T18:30:38.436Z,6.80
2017-10-27T18:33:07.394Z,6.80
2017-10-27T18:35:34.943Z,6.80
2017-10-27T18:38:02.450Z,6.90
2017-10-27T18:40:29.969Z,7.00
2017-10-27T18:42:57.508Z,7.00
2017-10-27T18:45:25.106Z,7.10
2017-10-27T18:47:53.397Z,7.30
2017-10-27T18:50:21.730Z,7.20
2017-10-27T18:52:49.232Z,7.20
2017-10-27T18:55:17.513Z,7.30
2017-10-27T18:57:45.006Z,7.30
2017-10-27T19:00:12.520Z,7.20
2017-10-27T19:02:40.783Z,7.20
2017-10-27T19:05:09.071Z,7.20
2017-10-27T19:07:37.335Z,7.20
2017-10-27T19:10:05.618Z,7.20
2017-10-27T19:12:33.879Z,7.20
2017-10-27T19:15:01.395Z,7.20
2017-10-27T19:17:28.888Z,7.10
2017-10-27T19:19:56.415Z,7.00
2017-10-27T19:22:23.917Z,7.00
2017-10-27T19:24:52.189Z,6.90
2017-10-27T19:27:19.702Z,6.90
2017-10-27T19:29:47.432Z,6.90
2017-10-27T19:32:14.951Z,6.80
2017-10-27T19:34:42.447Z,6.70
2017-10-27T19:37:10.722Z,6.60
2017-10-27T19:39:38.996Z,6.60
2017-10-27T19:42:08.114Z,6.50
2017-10-27T19:44:36.150Z,6.50
2017-10-27T19:47:04.437Z,6.50
2017-10-27T19:49:32.031Z,6.50
2017-10-27T19:51:59.685Z,6.40
2017-10-27T19:54:27.251Z,6.40
2017-10-27T19:56:54.832Z,6.50
2017-10-27T19:59:22.415Z,6.50
2017-10-27T20:01:50.741Z,6.40
2017-10-27T20:04:18.276Z,6.40
2017-10-27T20:06:45.831Z,6.30
2017-10-27T20:09:14.159Z,6.20
2017-10-27T20:11:41.726Z,6.20
2017-10-27T20:14:09.999Z,6.20
2017-10-27T20:16:37.538Z,6.20
2017-10-27T20:19:05.051Z,6.20
2017-10-27T20:21:33.339Z,6.20
2017-10-27T20:24:00.839Z,6.20
2017-10-27T20:26:28.388Z,6.30
2017-10-27T20:28:55.887Z,6.20
2017-10-27T20:31:23.383Z,6.10
2017-10-27T20:33:50.899Z,6.00
2017-10-27T20:36:18.401Z,6.00
2017-10-27T20:38:45.928Z,6.10
2017-10-27T20:41:13.432Z,6.10
2017-10-27T20:43:40.947Z,6.10
2017-10-27T20:46:09.215Z,6.00
2017-10-27T20:48:36.735Z,6.00
2017-10-27T20:51:04.239Z,6.00
2017-10-27T20:53:32.530Z,6.00
2017-10-27T20:56:00.808Z,6.00
2017-10-27T20:58:29.095Z,6.00
2017-10-27T21:00:56.595Z,6.00
2017-10-27T21:03:24.111Z,5.90
2017-10-27T21:05:51.611Z,5.90
2017-10-27T21:11:09.852Z,5.90
2017-10-27T21:13:37.371Z,5.80
2017-10-27T21:16:05.644Z,5.80
2017-10-27T21:18:34.009Z,5.80
2017-10-27T21:21:01.540Z,5.80
2017-10-27T21:23:29.829Z,5.70
2017-10-27T21:25:58.769Z,5.70
2017-10-27T21:28:26.295Z,5.70
2017-10-27T21:30:54.391Z,5.80
2017-10-27T21:33:21.921Z,5.90
2017-10-27T21:35:49.429Z,5.80
2017-10-27T21:38:16.964Z,5.80
2017-10-27T21:40:44.471Z,5.70
2017-10-27T21:43:12.744Z,5.70
2017-10-27T21:45:40.265Z,5.60
2017-10-27T21:48:07.777Z,5.70
2017-10-27T21:50:35.544Z,5.70
2017-10-27T21:53:03.052Z,5.60
2017-10-27T21:55:30.576Z,5.50
2017-10-27T21:57:58.852Z,5.70
2017-10-27T22:00:27.139Z,5.60
2017-10-27T22:02:55.416Z,5.50
2017-10-27T22:05:23.703Z,5.60
2017-10-27T22:07:51.220Z,5.60
2017-10-27T22:10:18.732Z,5.60
2017-10-27T22:12:46.706Z,5.60
2017-10-27T22:15:14.224Z,5.70
2017-10-27T22:17:42.528Z,5.60
2017-10-27T22:20:10.064Z,5.60
2017-10-27T22:22:38.347Z,5.50
2017-10-27T22:25:06.632Z,5.50
2017-10-27T22:27:34.154Z,5.50
2017-10-27T22:30:02.459Z,5.50
2017-10-27T22:32:30.731Z,5.50
2017-10-27T22:34:59.026Z,5.40
2017-10-27T22:37:26.546Z,5.40
2017-10-27T22:39:54.851Z,5.30
2017-10-27T22:42:23.111Z,5.40
2017-10-27T22:44:51.411Z,5.40
2017-10-27T22:47:18.936Z,5.40
2017-10-27T22:49:46.439Z,5.30
2017-10-27T22:52:13.959Z,5.30
2017-10-27T22:54:42.236Z,5.40
2017-10-27T22:57:10.523Z,5.40
2017-10-27T22:59:38.799Z,5.30
2017-10-27T23:02:07.083Z,5.40
2017-10-27T23:04:34.590Z,5.30
2017-10-27T23:07:02.885Z,5.50
2017-10-27T23:09:30.388Z,5.50
2017-10-27T23:11:58.217Z,5.40
2017-10-27T23:14:26.495Z,5.50
2017-10-27T23:16:54.784Z,5.50
2017-10-27T23:19:23.055Z,5.50
2017-10-27T23:21:51.344Z,5.50
2017-10-27T23:24:18.849Z,5.50
2017-10-27T23:26:47.144Z,5.50
2017-10-27T23:29:14.649Z,5.50
2017-10-27T23:31:42.171Z,5.60
2017-10-27T23:34:09.675Z,5.50
2017-10-27T23:36:37.195Z,5.50
2017-10-27T23:39:06.360Z,5.50
2017-10-27T23:41:33.882Z,5.50
2017-10-27T23:44:01.385Z,5.60
2017-10-27T23:46:28.909Z,5.60
2017-10-27T23:48:56.416Z,5.70
2017-10-27T23:51:23.920Z,5.60
2017-10-27T23:53:51.440Z,5.60
2017-10-27T23:56:19.707Z,5.70
2017-10-27T23:58:47.996Z,5.80
